sensor_id;sensor_type;location;lat;lon;timestamp;P1;durP1;ratioP1;P2;durP2;ratioP2
44822;SDS011;51097;51.984;5.650;2024-01-15T00:01:16;5.22;;;1.17;;
44822;SDS011;51097;51.984;5.650;2024-01-15T00:03:42;4.80;;;1.25;;
44822;SDS011;51097;51.984;5.650;2024-01-15T00:06:07;4.80;;;1.02;;
44822;SDS011;51097;51.984;5.650;2024-01-15T00:08:33;5.40;;;1.20;;
44822;SDS011;51097;51.984;5.650;2024-01-15T00:10:58;8.38;;;1.52;;
44822;SDS011;51097;51.984;5.650;2024-01-15T00:13:24;6.68;;;1.42;;
44822;SDS011;51097;51.984;5.650;2024-01-15T00:15:49;4.70;;;1.10;;
44822;SDS011;51097;51.984;5.650;2024-01-15T00:18:15;2.85;;;1.00;;
44822;SDS011;51097;51.984;5.650;2024-01-15T00:20:40;9.77;;;1.52;;
44822;SDS011;51097;51.984;5.650;2024-01-15T00:23:06;4.13;;;0.88;;
44822;SDS011;51097;51.984;5.650;2024-01-15T00:25:32;9.55;;;2.22;;
44822;SDS011;51097;51.984;5.650;2024-01-15T00:27:57;3.33;;;1.58;;
44822;SDS011;51097;51.984;5.650;2024-01-15T00:30:23;5.88;;;1.45;;
44822;SDS011;51097;51.984;5.650;2024-01-15T00:32:51;4.82;;;1.73;;
44822;SDS011;51097;51.984;5.650;2024-01-15T00:35:17;4.20;;;1.42;;
44822;SDS011;51097;51.984;5.650;2024-01-15T00:37:42;2.95;;;1.00;;
44822;SDS011;51097;51.984;5.650;2024-01-15T00:40:08;9.25;;;1.20;;
44822;SDS011;51097;51.984;5.650;2024-01-15T00:42:34;4.18;;;1.33;;
44822;SDS011;51097;51.984;5.650;2024-01-15T00:44:59;1.88;;;0.98;;
44822;SDS011;51097;51.984;5.650;2024-01-15T00:47:25;2.90;;;0.80;;
44822;SDS011;51097;51.984;5.650;2024-01-15T00:49:51;1.63;;;1.02;;
44822;SDS011;51097;51.984;5.650;2024-01-15T00:52:16;12.50;;;1.50;;
44822;SDS011;51097;51.984;5.650;2024-01-15T00:54:42;9.40;;;1.35;;
44822;SDS011;51097;51.984;5.650;2024-01-15T00:57:07;3.42;;;1.10;;
44822;SDS011;51097;51.984;5.650;2024-01-15T00:59:33;4.40;;;1.25;;
44822;SDS011;51097;51.984;5.650;2024-01-15T01:01:58;8.38;;;1.98;;
44822;SDS011;51097;51.984;5.650;2024-01-15T01:04:24;3.38;;;1.35;;
44822;SDS011;51097;51.984;5.650;2024-01-15T01:06:50;11.07;;;1.80;;
44822;SDS011;51097;51.984;5.650;2024-01-15T01:09:15;4.68;;;1.80;;
44822;SDS011;51097;51.984;5.650;2024-01-15T01:11:41;7.78;;;1.50;;
44822;SDS011;51097;51.984;5.650;2024-01-15T01:14:06;3.75;;;1.40;;
44822;SDS011;51097;51.984;5.650;2024-01-15T01:16:32;1.92;;;1.00;;
44822;SDS011;51097;51.984;5.650;2024-01-15T01:19:03;6.80;;;1.13;;
44822;SDS011;51097;51.984;5.650;2024-01-15T01:21:30;2.38;;;0.90;;
44822;SDS011;51097;51.984;5.650;2024-01-15T01:23:55;10.15;;;1.75;;
44822;SDS011;51097;51.984;5.650;2024-01-15T01:26:21;9.48;;;1.65;;
44822;SDS011;51097;51.984;5.650;2024-01-15T01:28:46;7.57;;;1.27;;
44822;SDS011;51097;51.984;5.650;2024-01-15T01:31:12;8.85;;;3.08;;
44822;SDS011;51097;51.984;5.650;2024-01-15T01:33:38;12.32;;;1.83;;
44822;SDS011;51097;51.984;5.650;2024-01-15T01:36:08;5.47;;;1.50;;
44822;SDS011;51097;51.984;5.650;2024-01-15T01:38:34;2.72;;;1.10;;
44822;SDS011;51097;51.984;5.650;2024-01-15T01:41:00;7.78;;;1.50;;
44822;SDS011;51097;51.984;5.650;2024-01-15T01:43:26;10.07;;;1.75;;
44822;SDS011;51097;51.984;5.650;2024-01-15T01:45:51;5.20;;;1.75;;
44822;SDS011;51097;51.984;5.650;2024-01-15T01:48:17;4.60;;;1.27;;
44822;SDS011;51097;51.984;5.650;2024-01-15T01:50:43;10.00;;;2.50;;
44822;SDS011;51097;51.984;5.650;2024-01-15T01:53:09;5.55;;;1.42;;
44822;SDS011;51097;51.984;5.650;2024-01-15T01:55:35;5.95;;;1.02;;
44822;SDS011;51097;51.984;5.650;2024-01-15T01:58:02;10.63;;;1.80;;
44822;SDS011;51097;51.984;5.650;2024-01-15T02:00:29;9.68;;;1.52;;
44822;SDS011;51097;51.984;5.650;2024-01-15T02:02:55;7.35;;;0.95;;
44822;SDS011;51097;51.984;5.650;2024-01-15T02:05:21;7.68;;;1.50;;
44822;SDS011;51097;51.984;5.650;2024-01-15T02:07:47;4.97;;;1.38;;
44822;SDS011;51097;51.984;5.650;2024-01-15T02:10:13;8.18;;;1.77;;
44822;SDS011;51097;51.984;5.650;2024-01-15T02:12:39;7.93;;;1.58;;
44822;SDS011;51097;51.984;5.650;2024-01-15T02:15:05;8.23;;;1.75;;
44822;SDS011;51097;51.984;5.650;2024-01-15T02:17:30;5.60;;;1.08;;
44822;SDS011;51097;51.984;5.650;2024-01-15T02:19:56;4.78;;;1.52;;
44822;SDS011;51097;51.984;5.650;2024-01-15T02:22:22;8.60;;;1.33;;
44822;SDS011;51097;51.984;5.650;2024-01-15T02:24:47;7.55;;;1.48;;
44822;SDS011;51097;51.984;5.650;2024-01-15T02:27:13;8.15;;;1.77;;
44822;SDS011;51097;51.984;5.650;2024-01-15T02:29:39;6.90;;;1.50;;
44822;SDS011;51097;51.984;5.650;2024-01-15T02:32:05;8.02;;;1.40;;
44822;SDS011;51097;51.984;5.650;2024-01-15T02:34:34;9.00;;;1.50;;
44822;SDS011;51097;51.984;5.650;2024-01-15T02:37:00;7.38;;;1.30;;
44822;SDS011;51097;51.984;5.650;2024-01-15T02:39:25;6.53;;;1.55;;
44822;SDS011;51097;51.984;5.650;2024-01-15T02:41:51;4.13;;;1.38;;
44822;SDS011;51097;51.984;5.650;2024-01-15T02:44:16;7.07;;;1.45;;
44822;SDS011;51097;51.984;5.650;2024-01-15T02:46:42;13.73;;;1.85;;
44822;SDS011;51097;51.984;5.650;2024-01-15T02:49:07;4.63;;;2.08;;
44822;SDS011;51097;51.984;5.650;2024-01-15T02:51:33;8.45;;;1.25;;
44822;SDS011;51097;51.984;5.650;2024-01-15T02:53:59;4.40;;;1.80;;
44822;SDS011;51097;51.984;5.650;2024-01-15T02:56:24;3.35;;;1.27;;
44822;SDS011;51097;51.984;5.650;2024-01-15T02:58:50;16.17;;;1.52;;
44822;SDS011;51097;51.984;5.650;2024-01-15T03:01:17;6.38;;;0.85;;
44822;SDS011;51097;51.984;5.650;2024-01-15T03:03:44;6.03;;;1.17;;
44822;SDS011;51097;51.984;5.650;2024-01-15T03:06:10;3.10;;;1.13;;
44822;SDS011;51097;51.984;5.650;2024-01-15T03:08:36;5.55;;;1.00;;
44822;SDS011;51097;51.984;5.650;2024-01-15T03:11:01;6.45;;;0.65;;
44822;SDS011;51097;51.984;5.650;2024-01-15T03:13:27;7.47;;;1.17;;
44822;SDS011;51097;51.984;5.650;2024-01-15T03:15:52;9.30;;;1.13;;
44822;SDS011;51097;51.984;5.650;2024-01-15T03:18:18;4.00;;;1.02;;
44822;SDS011;51097;51.984;5.650;2024-01-15T03:20:43;7.03;;;1.30;;
44822;SDS011;51097;51.984;5.650;2024-01-15T03:23:09;8.90;;;1.50;;
44822;SDS011;51097;51.984;5.650;2024-01-15T03:25:34;7.90;;;1.05;;
44822;SDS011;51097;51.984;5.650;2024-01-15T03:28:00;10.30;;;1.60;;
44822;SDS011;51097;51.984;5.650;2024-01-15T03:30:25;4.40;;;1.05;;
44822;SDS011;51097;51.984;5.650;2024-01-15T03:32:51;5.75;;;1.38;;
44822;SDS011;51097;51.984;5.650;2024-01-15T03:35:17;7.05;;;1.38;;
44822;SDS011;51097;51.984;5.650;2024-01-15T03:37:42;4.70;;;1.38;;
44822;SDS011;51097;51.984;5.650;2024-01-15T03:40:08;7.55;;;1.40;;
44822;SDS011;51097;51.984;5.650;2024-01-15T03:42:34;5.57;;;0.90;;
44822;SDS011;51097;51.984;5.650;2024-01-15T03:44:59;8.43;;;1.15;;
44822;SDS011;51097;51.984;5.650;2024-01-15T03:47:25;3.40;;;1.00;;
44822;SDS011;51097;51.984;5.650;2024-01-15T03:49:51;9.35;;;1.67;;
44822;SDS011;51097;51.984;5.650;2024-01-15T03:52:17;7.95;;;1.20;;
44822;SDS011;51097;51.984;5.650;2024-01-15T03:54:42;2.85;;;1.17;;
44822;SDS011;51097;51.984;5.650;2024-01-15T03:57:08;8.35;;;1.60;;
44822;SDS011;51097;51.984;5.650;2024-01-15T03:59:33;4.55;;;1.48;;
44822;SDS011;51097;51.984;5.650;2024-01-15T04:01:59;6.38;;;1.00;;
44822;SDS011;51097;51.984;5.650;2024-01-15T04:04:24;5.45;;;1.45;;
44822;SDS011;51097;51.984;5.650;2024-01-15T04:06:50;7.38;;;1.15;;
44822;SDS011;51097;51.984;5.650;2024-01-15T04:09:15;7.50;;;1.20;;
44822;SDS011;51097;51.984;5.650;2024-01-15T04:11:41;7.65;;;1.50;;
44822;SDS011;51097;51.984;5.650;2024-01-15T04:14:07;5.28;;;1.38;;
44822;SDS011;51097;51.984;5.650;2024-01-15T04:16:32;6.00;;;0.95;;
44822;SDS011;51097;51.984;5.650;2024-01-15T04:18:58;7.82;;;1.25;;
44822;SDS011;51097;51.984;5.650;2024-01-15T04:21:23;7.75;;;1.60;;
44822;SDS011;51097;51.984;5.650;2024-01-15T04:23:49;5.38;;;1.00;;
44822;SDS011;51097;51.984;5.650;2024-01-15T04:26:14;2.97;;;1.10;;
44822;SDS011;51097;51.984;5.650;2024-01-15T04:28:40;8.25;;;2.20;;
44822;SDS011;51097;51.984;5.650;2024-01-15T04:31:05;7.55;;;1.67;;
44822;SDS011;51097;51.984;5.650;2024-01-15T04:33:31;4.68;;;1.13;;
44822;SDS011;51097;51.984;5.650;2024-01-15T04:35:56;3.13;;;1.10;;
44822;SDS011;51097;51.984;5.650;2024-01-15T04:38:26;6.60;;;1.35;;
44822;SDS011;51097;51.984;5.650;2024-01-15T04:40:51;3.92;;;1.42;;
44822;SDS011;51097;51.984;5.650;2024-01-15T04:43:17;4.13;;;1.00;;
44822;SDS011;51097;51.984;5.650;2024-01-15T04:45:42;3.08;;;0.82;;
44822;SDS011;51097;51.984;5.650;2024-01-15T04:48:08;6.43;;;1.20;;
44822;SDS011;51097;51.984;5.650;2024-01-15T04:50:33;3.85;;;1.00;;
44822;SDS011;51097;51.984;5.650;2024-01-15T04:52:59;6.47;;;1.25;;
44822;SDS011;51097;51.984;5.650;2024-01-15T04:55:24;6.50;;;1.40;;
44822;SDS011;51097;51.984;5.650;2024-01-15T04:57:50;5.10;;;1.20;;
44822;SDS011;51097;51.984;5.650;2024-01-15T05:00:15;8.73;;;2.13;;
44822;SDS011;51097;51.984;5.650;2024-01-15T05:02:41;3.95;;;1.20;;
44822;SDS011;51097;51.984;5.650;2024-01-15T05:05:07;13.65;;;1.75;;
44822;SDS011;51097;51.984;5.650;2024-01-15T05:07:32;6.32;;;1.35;;
44822;SDS011;51097;51.984;5.650;2024-01-15T05:09:58;4.50;;;0.80;;
44822;SDS011;51097;51.984;5.650;2024-01-15T05:12:24;7.72;;;1.08;;
44822;SDS011;51097;51.984;5.650;2024-01-15T05:14:49;3.20;;;1.50;;
44822;SDS011;51097;51.984;5.650;2024-01-15T05:17:15;3.75;;;0.98;;
44822;SDS011;51097;51.984;5.650;2024-01-15T05:19:41;5.00;;;1.02;;
44822;SDS011;51097;51.984;5.650;2024-01-15T05:22:06;6.03;;;2.85;;
44822;SDS011;51097;51.984;5.650;2024-01-15T05:24:32;2.20;;;0.70;;
44822;SDS011;51097;51.984;5.650;2024-01-15T05:26:57;5.32;;;1.02;;
44822;SDS011;51097;51.984;5.650;2024-01-15T05:29:23;3.42;;;1.27;;
44822;SDS011;51097;51.984;5.650;2024-01-15T05:31:48;6.15;;;1.35;;
44822;SDS011;51097;51.984;5.650;2024-01-15T05:34:14;5.05;;;0.70;;
44822;SDS011;51097;51.984;5.650;2024-01-15T05:36:39;3.25;;;1.00;;
44822;SDS011;51097;51.984;5.650;2024-01-15T05:39:05;5.75;;;0.82;;
44822;SDS011;51097;51.984;5.650;2024-01-15T05:41:30;3.35;;;0.70;;
44822;SDS011;51097;51.984;5.650;2024-01-15T05:43:56;3.15;;;1.17;;
44822;SDS011;51097;51.984;5.650;2024-01-15T05:46:21;4.80;;;1.10;;
44822;SDS011;51097;51.984;5.650;2024-01-15T05:48:47;5.50;;;1.48;;
44822;SDS011;51097;51.984;5.650;2024-01-15T05:51:13;5.15;;;1.08;;
44822;SDS011;51097;51.984;5.650;2024-01-15T05:53:38;5.82;;;1.13;;
44822;SDS011;51097;51.984;5.650;2024-01-15T05:56:06;2.63;;;1.42;;
44822;SDS011;51097;51.984;5.650;2024-01-15T05:58:32;3.55;;;1.65;;
44822;SDS011;51097;51.984;5.650;2024-01-15T06:00:57;1.77;;;0.77;;
44822;SDS011;51097;51.984;5.650;2024-01-15T06:03:23;1.58;;;1.02;;
44822;SDS011;51097;51.984;5.650;2024-01-15T06:05:48;5.60;;;1.17;;
44822;SDS011;51097;51.984;5.650;2024-01-15T06:08:14;1.40;;;0.88;;
44822;SDS011;51097;51.984;5.650;2024-01-15T06:10:39;5.00;;;1.75;;
44822;SDS011;51097;51.984;5.650;2024-01-15T06:13:05;1.40;;;0.90;;
44822;SDS011;51097;51.984;5.650;2024-01-15T06:15:30;3.45;;;1.40;;
44822;SDS011;51097;51.984;5.650;2024-01-15T06:17:56;4.15;;;1.33;;
44822;SDS011;51097;51.984;5.650;2024-01-15T06:20:21;2.88;;;1.40;;
44822;SDS011;51097;51.984;5.650;2024-01-15T06:22:47;5.25;;;1.33;;
44822;SDS011;51097;51.984;5.650;2024-01-15T06:25:13;7.30;;;1.95;;
44822;SDS011;51097;51.984;5.650;2024-01-15T06:27:38;8.73;;;2.45;;
44822;SDS011;51097;51.984;5.650;2024-01-15T06:30:04;3.95;;;1.88;;
44822;SDS011;51097;51.984;5.650;2024-01-15T06:32:30;3.08;;;1.80;;
44822;SDS011;51097;51.984;5.650;2024-01-15T06:34:56;8.88;;;2.60;;
44822;SDS011;51097;51.984;5.650;2024-01-15T06:37:21;3.38;;;2.65;;
44822;SDS011;51097;51.984;5.650;2024-01-15T06:39:47;8.15;;;3.08;;
44822;SDS011;51097;51.984;5.650;2024-01-15T06:42:12;7.10;;;3.67;;
44822;SDS011;51097;51.984;5.650;2024-01-15T06:44:38;5.53;;;4.20;;
44822;SDS011;51097;51.984;5.650;2024-01-15T06:47:04;8.40;;;4.57;;
44822;SDS011;51097;51.984;5.650;2024-01-15T06:49:30;8.40;;;3.88;;
44822;SDS011;51097;51.984;5.650;2024-01-15T06:51:55;7.25;;;4.15;;
44822;SDS011;51097;51.984;5.650;2024-01-15T06:54:21;7.40;;;4.85;;
44822;SDS011;51097;51.984;5.650;2024-01-15T06:56:47;6.95;;;4.15;;
44822;SDS011;51097;51.984;5.650;2024-01-15T06:59:12;5.30;;;3.58;;
44822;SDS011;51097;51.984;5.650;2024-01-15T07:01:38;5.85;;;3.67;;
44822;SDS011;51097;51.984;5.650;2024-01-15T07:04:03;3.60;;;2.83;;
44822;SDS011;51097;51.984;5.650;2024-01-15T07:06:29;4.93;;;2.80;;
44822;SDS011;51097;51.984;5.650;2024-01-15T07:08:55;4.82;;;3.10;;
44822;SDS011;51097;51.984;5.650;2024-01-15T07:11:21;4.03;;;3.55;;
44822;SDS011;51097;51.984;5.650;2024-01-15T07:13:47;4.60;;;3.55;;
44822;SDS011;51097;51.984;5.650;2024-01-15T07:16:12;3.42;;;3.13;;
44822;SDS011;51097;51.984;5.650;2024-01-15T07:18:38;4.53;;;3.50;;
44822;SDS011;51097;51.984;5.650;2024-01-15T07:21:03;5.45;;;3.55;;
44822;SDS011;51097;51.984;5.650;2024-01-15T07:23:30;3.65;;;2.65;;
44822;SDS011;51097;51.984;5.650;2024-01-15T07:25:56;4.18;;;3.35;;
44822;SDS011;51097;51.984;5.650;2024-01-15T07:28:22;4.82;;;3.78;;
44822;SDS011;51097;51.984;5.650;2024-01-15T07:30:47;4.28;;;3.25;;
44822;SDS011;51097;51.984;5.650;2024-01-15T07:33:13;4.40;;;2.58;;
44822;SDS011;51097;51.984;5.650;2024-01-15T07:35:39;3.63;;;2.53;;
44822;SDS011;51097;51.984;5.650;2024-01-15T07:38:04;4.43;;;2.70;;
44822;SDS011;51097;51.984;5.650;2024-01-15T07:40:30;4.45;;;2.83;;
44822;SDS011;51097;51.984;5.650;2024-01-15T07:42:55;3.90;;;2.72;;
44822;SDS011;51097;51.984;5.650;2024-01-15T07:45:21;4.30;;;3.22;;
44822;SDS011;51097;51.984;5.650;2024-01-15T07:47:46;5.88;;;3.05;;
44822;SDS011;51097;51.984;5.650;2024-01-15T07:50:12;4.75;;;2.80;;
44822;SDS011;51097;51.984;5.650;2024-01-15T07:52:39;2.65;;;2.45;;
44822;SDS011;51097;51.984;5.650;2024-01-15T07:55:06;4.40;;;2.42;;
44822;SDS011;51097;51.984;5.650;2024-01-15T07:57:32;3.47;;;2.05;;
44822;SDS011;51097;51.984;5.650;2024-01-15T07:59:58;3.25;;;2.40;;
44822;SDS011;51097;51.984;5.650;2024-01-15T08:02:24;5.72;;;2.60;;
44822;SDS011;51097;51.984;5.650;2024-01-15T08:04:49;8.63;;;2.92;;
44822;SDS011;51097;51.984;5.650;2024-01-15T08:07:15;3.80;;;2.60;;
44822;SDS011;51097;51.984;5.650;2024-01-15T08:09:40;4.22;;;2.80;;
44822;SDS011;51097;51.984;5.650;2024-01-15T08:12:06;4.43;;;2.80;;
44822;SDS011;51097;51.984;5.650;2024-01-15T08:14:32;6.88;;;4.18;;
44822;SDS011;51097;51.984;5.650;2024-01-15T08:16:58;6.97;;;4.05;;
44822;SDS011;51097;51.984;5.650;2024-01-15T08:19:24;7.35;;;3.83;;
44822;SDS011;51097;51.984;5.650;2024-01-15T08:21:49;6.30;;;3.72;;
44822;SDS011;51097;51.984;5.650;2024-01-15T08:24:15;4.30;;;3.58;;
44822;SDS011;51097;51.984;5.650;2024-01-15T08:26:43;6.22;;;4.15;;
44822;SDS011;51097;51.984;5.650;2024-01-15T08:29:08;3.85;;;3.33;;
44822;SDS011;51097;51.984;5.650;2024-01-15T08:31:34;6.43;;;3.20;;
44822;SDS011;51097;51.984;5.650;2024-01-15T08:33:59;3.63;;;2.90;;
44822;SDS011;51097;51.984;5.650;2024-01-15T08:36:28;6.68;;;3.78;;
44822;SDS011;51097;51.984;5.650;2024-01-15T08:38:56;8.15;;;3.00;;
44822;SDS011;51097;51.984;5.650;2024-01-15T08:41:22;4.47;;;3.03;;
44822;SDS011;51097;51.984;5.650;2024-01-15T08:43:48;8.13;;;3.53;;
44822;SDS011;51097;51.984;5.650;2024-01-15T08:46:14;6.30;;;3.10;;
44822;SDS011;51097;51.984;5.650;2024-01-15T08:48:39;4.95;;;3.05;;
44822;SDS011;51097;51.984;5.650;2024-01-15T08:51:05;4.72;;;3.40;;
44822;SDS011;51097;51.984;5.650;2024-01-15T08:53:31;6.95;;;3.47;;
44822;SDS011;51097;51.984;5.650;2024-01-15T08:55:57;5.63;;;3.30;;
44822;SDS011;51097;51.984;5.650;2024-01-15T08:58:23;6.45;;;4.47;;
44822;SDS011;51097;51.984;5.650;2024-01-15T09:00:49;7.82;;;3.88;;
44822;SDS011;51097;51.984;5.650;2024-01-15T09:03:15;7.63;;;3.92;;
44822;SDS011;51097;51.984;5.650;2024-01-15T09:05:41;8.60;;;3.95;;
44822;SDS011;51097;51.984;5.650;2024-01-15T09:08:07;5.07;;;3.42;;
44822;SDS011;51097;51.984;5.650;2024-01-15T09:10:33;6.72;;;3.60;;
44822;SDS011;51097;51.984;5.650;2024-01-15T09:12:58;6.05;;;3.42;;
44822;SDS011;51097;51.984;5.650;2024-01-15T09:15:25;6.80;;;3.03;;
44822;SDS011;51097;51.984;5.650;2024-01-15T09:17:50;7.18;;;2.65;;
44822;SDS011;51097;51.984;5.650;2024-01-15T09:20:16;8.82;;;2.63;;
44822;SDS011;51097;51.984;5.650;2024-01-15T09:22:42;3.83;;;2.30;;
44822;SDS011;51097;51.984;5.650;2024-01-15T09:25:09;7.82;;;2.65;;
44822;SDS011;51097;51.984;5.650;2024-01-15T09:27:35;4.68;;;2.10;;
44822;SDS011;51097;51.984;5.650;2024-01-15T09:30:04;7.43;;;1.90;;
44822;SDS011;51097;51.984;5.650;2024-01-15T09:32:30;3.50;;;1.65;;
44822;SDS011;51097;51.984;5.650;2024-01-15T09:34:57;3.03;;;1.58;;
44822;SDS011;51097;51.984;5.650;2024-01-15T09:37:23;3.13;;;2.15;;
44822;SDS011;51097;51.984;5.650;2024-01-15T09:39:48;4.72;;;1.67;;
44822;SDS011;51097;51.984;5.650;2024-01-15T09:42:15;5.20;;;1.60;;
44822;SDS011;51097;51.984;5.650;2024-01-15T09:44:41;3.85;;;1.52;;
44822;SDS011;51097;51.984;5.650;2024-01-15T09:47:06;2.22;;;1.17;;
44822;SDS011;51097;51.984;5.650;2024-01-15T09:49:33;3.28;;;0.82;;
44822;SDS011;51097;51.984;5.650;2024-01-15T09:51:59;1.58;;;1.10;;
44822;SDS011;51097;51.984;5.650;2024-01-15T09:54:26;2.92;;;1.40;;
44822;SDS011;51097;51.984;5.650;2024-01-15T09:56:52;4.43;;;2.40;;
44822;SDS011;51097;51.984;5.650;2024-01-15T09:59:20;8.23;;;4.15;;
44822;SDS011;51097;51.984;5.650;2024-01-15T10:01:47;9.40;;;3.70;;
44822;SDS011;51097;51.984;5.650;2024-01-15T10:04:15;4.95;;;2.40;;
44822;SDS011;51097;51.984;5.650;2024-01-15T10:06:45;4.13;;;2.10;;
44822;SDS011;51097;51.984;5.650;2024-01-15T10:09:14;3.97;;;2.30;;
44822;SDS011;51097;51.984;5.650;2024-01-15T10:11:43;8.18;;;1.95;;
44822;SDS011;51097;51.984;5.650;2024-01-15T10:14:09;6.93;;;1.85;;
44822;SDS011;51097;51.984;5.650;2024-01-15T10:16:39;6.15;;;1.77;;
44822;SDS011;51097;51.984;5.650;2024-01-15T10:19:05;4.43;;;1.60;;
44822;SDS011;51097;51.984;5.650;2024-01-15T10:21:32;6.22;;;1.58;;
44822;SDS011;51097;51.984;5.650;2024-01-15T10:24:00;5.97;;;2.10;;
44822;SDS011;51097;51.984;5.650;2024-01-15T10:26:26;6.40;;;2.42;;
44822;SDS011;51097;51.984;5.650;2024-01-15T10:28:52;5.85;;;2.85;;
44822;SDS011;51097;51.984;5.650;2024-01-15T10:31:17;4.50;;;2.85;;
44822;SDS011;51097;51.984;5.650;2024-01-15T10:33:44;6.13;;;3.05;;
44822;SDS011;51097;51.984;5.650;2024-01-15T10:36:10;6.25;;;3.83;;
44822;SDS011;51097;51.984;5.650;2024-01-15T10:38:38;7.80;;;3.80;;
44822;SDS011;51097;51.984;5.650;2024-01-15T10:41:04;5.60;;;3.58;;
44822;SDS011;51097;51.984;5.650;2024-01-15T10:43:29;7.05;;;3.50;;
44822;SDS011;51097;51.984;5.650;2024-01-15T10:45:55;5.20;;;2.90;;
44822;SDS011;51097;51.984;5.650;2024-01-15T10:48:21;7.10;;;4.82;;
44822;SDS011;51097;51.984;5.650;2024-01-15T10:50:47;8.45;;;4.10;;
44822;SDS011;51097;51.984;5.650;2024-01-15T10:53:16;7.13;;;3.28;;
44822;SDS011;51097;51.984;5.650;2024-01-15T10:55:42;4.97;;;3.15;;
44822;SDS011;51097;51.984;5.650;2024-01-15T10:58:08;8.25;;;2.50;;
44822;SDS011;51097;51.984;5.650;2024-01-15T11:00:34;8.77;;;2.78;;
44822;SDS011;51097;51.984;5.650;2024-01-15T11:03:02;3.95;;;2.30;;
44822;SDS011;51097;51.984;5.650;2024-01-15T11:05:33;4.80;;;2.60;;
44822;SDS011;51097;51.984;5.650;2024-01-15T11:08:01;6.85;;;2.55;;
44822;SDS011;51097;51.984;5.650;2024-01-15T11:13:39;10.50;;;5.60;;
44822;SDS011;51097;51.984;5.650;2024-01-15T11:23:56;5.63;;;2.30;;
44822;SDS011;51097;51.984;5.650;2024-01-15T11:29:02;4.75;;;1.52;;
44822;SDS011;51097;51.984;5.650;2024-01-15T11:34:04;4.85;;;1.58;;
44822;SDS011;51097;51.984;5.650;2024-01-15T11:41:56;4.95;;;1.40;;
44822;SDS011;51097;51.984;5.650;2024-01-15T11:44:22;3.92;;;1.50;;
44822;SDS011;51097;51.984;5.650;2024-01-15T11:47:01;5.93;;;1.10;;
44822;SDS011;51097;51.984;5.650;2024-01-15T11:52:12;7.00;;;1.05;;
44822;SDS011;51097;51.984;5.650;2024-01-15T11:54:42;4.97;;;0.90;;
44822;SDS011;51097;51.984;5.650;2024-01-15T11:57:16;8.93;;;2.42;;
44822;SDS011;51097;51.984;5.650;2024-01-15T11:59:50;3.55;;;1.20;;
44822;SDS011;51097;51.984;5.650;2024-01-15T12:02:16;6.78;;;2.30;;
44822;SDS011;51097;51.984;5.650;2024-01-15T12:04:41;2.08;;;0.95;;
44822;SDS011;51097;51.984;5.650;2024-01-15T12:07:07;8.90;;;2.25;;
44822;SDS011;51097;51.984;5.650;2024-01-15T12:09:33;4.15;;;1.25;;
44822;SDS011;51097;51.984;5.650;2024-01-15T12:12:02;5.03;;;1.00;;
44822;SDS011;51097;51.984;5.650;2024-01-15T12:14:32;2.95;;;1.25;;
44822;SDS011;51097;51.984;5.650;2024-01-15T12:16:59;2.08;;;1.10;;
44822;SDS011;51097;51.984;5.650;2024-01-15T12:19:25;4.05;;;1.95;;
44822;SDS011;51097;51.984;5.650;2024-01-15T12:21:51;1.58;;;0.57;;
44822;SDS011;51097;51.984;5.650;2024-01-15T12:24:17;6.03;;;1.33;;
44822;SDS011;51097;51.984;5.650;2024-01-15T12:26:42;6.68;;;1.95;;
44822;SDS011;51097;51.984;5.650;2024-01-15T12:29:10;5.57;;;2.20;;
44822;SDS011;51097;51.984;5.650;2024-01-15T12:31:36;5.80;;;1.60;;
44822;SDS011;51097;51.984;5.650;2024-01-15T12:34:02;1.52;;;1.02;;
44822;SDS011;51097;51.984;5.650;2024-01-15T12:36:30;5.47;;;1.17;;
44822;SDS011;51097;51.984;5.650;2024-01-15T12:38:59;3.90;;;1.23;;
44822;SDS011;51097;51.984;5.650;2024-01-15T12:41:24;10.43;;;2.17;;
44822;SDS011;51097;51.984;5.650;2024-01-15T12:43:50;6.38;;;1.50;;
44822;SDS011;51097;51.984;5.650;2024-01-15T12:46:16;7.82;;;2.13;;
44822;SDS011;51097;51.984;5.650;2024-01-15T12:48:41;6.35;;;1.42;;
44822;SDS011;51097;51.984;5.650;2024-01-15T12:51:07;8.95;;;3.03;;
44822;SDS011;51097;51.984;5.650;2024-01-15T12:53:33;2.72;;;1.40;;
44822;SDS011;51097;51.984;5.650;2024-01-15T12:55:59;5.05;;;1.35;;
44822;SDS011;51097;51.984;5.650;2024-01-15T12:58:25;4.00;;;0.80;;
44822;SDS011;51097;51.984;5.650;2024-01-15T13:00:51;4.25;;;1.35;;
44822;SDS011;51097;51.984;5.650;2024-01-15T13:03:16;5.18;;;1.05;;
44822;SDS011;51097;51.984;5.650;2024-01-15T13:05:43;5.20;;;1.40;;
44822;SDS011;51097;51.984;5.650;2024-01-15T13:08:10;7.35;;;1.23;;
44822;SDS011;51097;51.984;5.650;2024-01-15T13:10:36;7.28;;;0.98;;
44822;SDS011;51097;51.984;5.650;2024-01-15T13:13:01;7.53;;;1.65;;
44822;SDS011;51097;51.984;5.650;2024-01-15T13:15:27;2.25;;;0.82;;
44822;SDS011;51097;51.984;5.650;2024-01-15T13:17:53;5.32;;;1.48;;
44822;SDS011;51097;51.984;5.650;2024-01-15T13:20:18;6.40;;;0.80;;
44822;SDS011;51097;51.984;5.650;2024-01-15T13:22:44;4.85;;;0.90;;
44822;SDS011;51097;51.984;5.650;2024-01-15T13:25:10;5.45;;;0.98;;
44822;SDS011;51097;51.984;5.650;2024-01-15T13:27:36;8.77;;;1.48;;
44822;SDS011;51097;51.984;5.650;2024-01-15T13:30:02;3.78;;;0.82;;
44822;SDS011;51097;51.984;5.650;2024-01-15T13:32:29;4.97;;;1.15;;
44822;SDS011;51097;51.984;5.650;2024-01-15T13:34:55;2.50;;;0.80;;
44822;SDS011;51097;51.984;5.650;2024-01-15T13:37:21;3.42;;;1.05;;
44822;SDS011;51097;51.984;5.650;2024-01-15T13:39:49;3.72;;;0.73;;
44822;SDS011;51097;51.984;5.650;2024-01-15T13:42:16;7.90;;;0.70;;
44822;SDS011;51097;51.984;5.650;2024-01-15T13:44:42;2.45;;;1.10;;
44822;SDS011;51097;51.984;5.650;2024-01-15T13:47:08;5.18;;;1.15;;
44822;SDS011;51097;51.984;5.650;2024-01-15T13:49:34;9.45;;;1.60;;
44822;SDS011;51097;51.984;5.650;2024-01-15T13:52:00;4.05;;;1.20;;
44822;SDS011;51097;51.984;5.650;2024-01-15T13:54:29;13.75;;;1.38;;
44822;SDS011;51097;51.984;5.650;2024-01-15T13:56:55;4.07;;;0.90;;
44822;SDS011;51097;51.984;5.650;2024-01-15T13:59:20;6.63;;;1.10;;
44822;SDS011;51097;51.984;5.650;2024-01-15T14:01:46;9.27;;;2.25;;
44822;SDS011;51097;51.984;5.650;2024-01-15T14:04:12;6.40;;;1.50;;
44822;SDS011;51097;51.984;5.650;2024-01-15T14:06:38;6.22;;;1.65;;
44822;SDS011;51097;51.984;5.650;2024-01-15T14:09:04;3.10;;;1.75;;
44822;SDS011;51097;51.984;5.650;2024-01-15T14:11:30;7.03;;;2.08;;
44822;SDS011;51097;51.984;5.650;2024-01-15T14:13:55;4.95;;;2.25;;
44822;SDS011;51097;51.984;5.650;2024-01-15T14:16:21;3.63;;;2.17;;
44822;SDS011;51097;51.984;5.650;2024-01-15T14:18:47;9.98;;;2.17;;
44822;SDS011;51097;51.984;5.650;2024-01-15T14:21:13;4.55;;;1.52;;
44822;SDS011;51097;51.984;5.650;2024-01-15T14:23:39;7.53;;;1.75;;
44822;SDS011;51097;51.984;5.650;2024-01-15T14:26:05;4.28;;;1.50;;
44822;SDS011;51097;51.984;5.650;2024-01-15T14:28:30;13.48;;;6.15;;
44822;SDS011;51097;51.984;5.650;2024-01-15T14:30:56;11.75;;;6.88;;
44822;SDS011;51097;51.984;5.650;2024-01-15T14:33:24;11.95;;;6.47;;
44822;SDS011;51097;51.984;5.650;2024-01-15T14:35:49;6.65;;;2.38;;
44822;SDS011;51097;51.984;5.650;2024-01-15T14:38:16;6.90;;;2.08;;
44822;SDS011;51097;51.984;5.650;2024-01-15T14:40:41;5.80;;;1.75;;
44822;SDS011;51097;51.984;5.650;2024-01-15T14:43:07;5.57;;;1.90;;
44822;SDS011;51097;51.984;5.650;2024-01-15T14:45:33;7.20;;;2.30;;
44822;SDS011;51097;51.984;5.650;2024-01-15T14:47:58;6.15;;;1.80;;
44822;SDS011;51097;51.984;5.650;2024-01-15T14:50:24;2.97;;;1.40;;
44822;SDS011;51097;51.984;5.650;2024-01-15T14:52:50;4.53;;;1.40;;
44822;SDS011;51097;51.984;5.650;2024-01-15T14:55:16;4.43;;;1.67;;
44822;SDS011;51097;51.984;5.650;2024-01-15T14:57:41;5.95;;;1.40;;
44822;SDS011;51097;51.984;5.650;2024-01-15T15:00:07;11.32;;;2.30;;
44822;SDS011;51097;51.984;5.650;2024-01-15T15:02:34;11.38;;;2.22;;
44822;SDS011;51097;51.984;5.650;2024-01-15T15:05:01;13.38;;;2.00;;